sensor_id;sensor_type;location;lat;lon;timestamp;pressure;altitude;pressure_sealevel;temperature;humidity
9784;BME280;4931;44.874;-1.092;2023-02-28T00:00:27;102092.81;;;-1.21;100.00
9784;BME280;4931;44.874;-1.092;2023-02-28T00:02:53;102084.56;;;-1.19;100.00
9784;BME280;4931;44.874;-1.092;2023-02-28T00:05:20;102081.88;;;-1.19;100.00
9784;BME280;4931;44.874;-1.092;2023-02-28T00:07:47;102078.50;;;-1.21;100.00
9784;BME280;4931;44.874;-1.092;2023-02-28T00:10:18;102089.97;;;-1.27;100.00
9784;BME280;4931;44.874;-1.092;2023-02-28T00:12:47;102088.44;;;-1.38;100.00
9784;BME280;4931;44.874;-1.092;2023-02-28T00:15:13;102085.09;;;-1.40;100.00
9784;BME280;4931;44.874;-1.092;2023-02-28T00:17:38;102088.44;;;-1.38;100.00
9784;BME280;4931;44.874;-1.092;2023-02-28T00:20:06;102096.34;;;-1.20;100.00
9784;BME280;4931;44.874;-1.092;2023-02-28T00:22:36;102090.09;;;-1.04;100.00
9784;BME280;4931;44.874;-1.092;2023-02-28T00:25:03;102090.09;;;-0.88;100.00
9784;BME280;4931;44.874;-1.092;2023-02-28T00:27:29;102087.56;;;-0.81;100.00
9784;BME280;4931;44.874;-1.092;2023-02-28T00:29:55;102085.34;;;-0.69;100.00
9784;BME280;4931;44.874;-1.092;2023-02-28T00:32:21;102086.00;;;-0.67;100.00
9784;BME280;4931;44.874;-1.092;2023-02-28T00:34:47;102087.69;;;-0.58;100.00
9784;BME280;4931;44.874;-1.092;2023-02-28T00:37:12;102083.63;;;-0.62;100.00
9784;BME280;4931;44.874;-1.092;2023-02-28T00:39:38;102098.44;;;-0.49;100.00
9784;BME280;4931;44.874;-1.092;2023-02-28T00:42:05;102101.31;;;-0.51;100.00
9784;BME280;4931;44.874;-1.092;2023-02-28T00:44:32;102094.72;;;-0.48;100.00
9784;BME280;4931;44.874;-1.092;2023-02-28T00:46:58;102090.28;;;-0.41;100.00
9784;BME280;4931;44.874;-1.092;2023-02-28T00:49:24;102086.59;;;-0.40;100.00
9784;BME280;4931;44.874;-1.092;2023-02-28T00:51:55;102079.84;;;-0.36;100.00
9784;BME280;4931;44.874;-1.092;2023-02-28T00:54:21;102086.22;;;-0.37;100.00
9784;BME280;4931;44.874;-1.092;2023-02-28T00:56:47;102078.19;;;-0.45;100.00
9784;BME280;4931;44.874;-1.092;2023-02-28T00:59:14;102080.84;;;-0.37;100.00
9784;BME280;4931;44.874;-1.092;2023-02-28T01:01:40;102088.28;;;-0.39;100.00
9784;BME280;4931;44.874;-1.092;2023-02-28T01:04:06;102084.91;;;-0.41;100.00
9784;BME280;4931;44.874;-1.092;2023-02-28T01:06:31;102087.28;;;-0.46;100.00
9784;BME280;4931;44.874;-1.092;2023-02-28T01:08:58;102079.56;;;-0.49;100.00
9784;BME280;4931;44.874;-1.092;2023-02-28T01:11:23;102089.47;;;-0.42;100.00
9784;BME280;4931;44.874;-1.092;2023-02-28T01:13:49;102086.63;;;-0.48;100.00
9784;BME280;4931;44.874;-1.092;2023-02-28T01:16:15;102092.00;;;-0.40;100.00
9784;BME280;4931;44.874;-1.092;2023-02-28T01:18:41;102085.59;;;-0.47;100.00
9784;BME280;4931;44.874;-1.092;2023-02-28T01:21:10;102088.81;;;-0.52;100.00
9784;BME280;4931;44.874;-1.092;2023-02-28T01:23:37;102094.38;;;-0.45;100.00
9784;BME280;4931;44.874;-1.092;2023-02-28T01:26:14;102084.25;;;-0.52;100.00
9784;BME280;4931;44.874;-1.092;2023-02-28T01:28:40;102075.69;;;-0.55;100.00
9784;BME280;4931;44.874;-1.092;2023-02-28T01:31:06;102079.59;;;-0.58;100.00
9784;BME280;4931;44.874;-1.092;2023-02-28T01:33:32;102081.94;;;-0.55;100.00
9784;BME280;4931;44.874;-1.092;2023-02-28T01:35:59;102084.81;;;-0.56;100.00
9784;BME280;4931;44.874;-1.092;2023-02-28T01:38:24;102073.19;;;-0.65;100.00
9784;BME280;4931;44.874;-1.092;2023-02-28T01:40:50;102082.94;;;-0.56;100.00
9784;BME280;4931;44.874;-1.092;2023-02-28T01:45:46;102081.75;;;-0.53;100.00
9784;BME280;4931;44.874;-1.092;2023-02-28T01:48:12;102080.59;;;-0.59;100.00
9784;BME280;4931;44.874;-1.092;2023-02-28T01:50:41;102090.38;;;-0.58;100.00
9784;BME280;4931;44.874;-1.092;2023-02-28T01:53:13;102088.34;;;-0.64;100.00
9784;BME280;4931;44.874;-1.092;2023-02-28T01:55:40;102089.00;;;-0.62;100.00
9784;BME280;4931;44.874;-1.092;2023-02-28T01:58:08;102072.38;;;-0.74;100.00
9784;BME280;4931;44.874;-1.092;2023-02-28T02:00:34;102079.78;;;-0.68;100.00
9784;BME280;4931;44.874;-1.092;2023-02-28T02:03:06;102091.88;;;-0.63;100.00
9784;BME280;4931;44.874;-1.092;2023-02-28T02:05:32;102083.63;;;-0.62;100.00
9784;BME280;4931;44.874;-1.092;2023-02-28T02:08:05;102081.25;;;-0.57;100.00
9784;BME280;4931;44.874;-1.092;2023-02-28T02:10:39;102088.31;;;-0.56;100.00
9784;BME280;4931;44.874;-1.092;2023-02-28T02:18:44;102076.91;;;-0.66;100.00
9784;BME280;4931;44.874;-1.092;2023-02-28T02:21:24;102085.66;;;-0.64;100.00
9784;BME280;4931;44.874;-1.092;2023-02-28T02:37:38;102082.66;;;-0.77;100.00
9784;BME280;4931;44.874;-1.092;2023-02-28T02:40:25;102078.28;;;-0.78;100.00
9784;BME280;4931;44.874;-1.092;2023-02-28T02:43:17;102084.66;;;-0.71;100.00
9784;BME280;4931;44.874;-1.092;2023-02-28T02:45:53;102085.00;;;-0.74;100.00
9784;BME280;4931;44.874;-1.092;2023-02-28T02:48:25;102084.31;;;-0.76;100.00
9784;BME280;4931;44.874;-1.092;2023-02-28T02:50:54;102077.44;;;-0.79;100.00
9784;BME280;4931;44.874;-1.092;2023-02-28T02:53:30;102076.94;;;-0.82;100.00
9784;BME280;4931;44.874;-1.092;2023-02-28T02:55:59;102082.34;;;-0.82;100.00
9784;BME280;4931;44.874;-1.092;2023-02-28T02:58:30;102079.31;;;-0.88;100.00
9784;BME280;4931;44.874;-1.092;2023-02-28T03:00:59;102079.50;;;-0.89;100.00
9784;BME280;4931;44.874;-1.092;2023-02-28T03:03:26;102083.50;;;-0.93;100.00
9784;BME280;4931;44.874;-1.092;2023-02-28T03:06:00;102083.38;;;-0.92;100.00
9784;BME280;4931;44.874;-1.092;2023-02-28T03:08:27;102080.00;;;-0.94;100.00
9784;BME280;4931;44.874;-1.092;2023-02-28T03:10:59;102084.41;;;-1.01;100.00
9784;BME280;4931;44.874;-1.092;2023-02-28T03:27:31;102088.41;;;-1.05;100.00
9784;BME280;4931;44.874;-1.092;2023-02-28T03:30:04;102087.94;;;-1.09;100.00
9784;BME280;4931;44.874;-1.092;2023-02-28T03:32:57;102097.84;;;-1.09;100.00
9784;BME280;4931;44.874;-1.092;2023-02-28T03:35:26;102097.84;;;-1.09;100.00
9784;BME280;4931;44.874;-1.092;2023-02-28T03:37:59;102083.03;;;-1.13;100.00
9784;BME280;4931;44.874;-1.092;2023-02-28T03:40:29;102091.78;;;-1.03;100.00
9784;BME280;4931;44.874;-1.092;2023-02-28T03:42:59;102087.59;;;-1.06;100.00
9784;BME280;4931;44.874;-1.092;2023-02-28T03:45:29;102098.84;;;-1.10;100.00
9784;BME280;4931;44.874;-1.092;2023-02-28T03:48:01;102077.16;;;-1.25;100.00
9784;BME280;4931;44.874;-1.092;2023-02-28T03:50:35;102099.53;;;-1.25;100.00
9784;BME280;4931;44.874;-1.092;2023-02-28T03:53:20;102101.75;;;-1.28;100.00
9784;BME280;4931;44.874;-1.092;2023-02-28T03:56:12;102101.22;;;-1.32;100.00
9784;BME280;4931;44.874;-1.092;2023-02-28T04:01:15;102104.09;;;-1.34;100.00
9784;BME280;4931;44.874;-1.092;2023-02-28T04:03:43;102111.19;;;-1.32;100.00
9784;BME280;4931;44.874;-1.092;2023-02-28T04:06:15;102099.38;;;-1.48;100.00
9784;BME280;4931;44.874;-1.092;2023-02-28T04:08:42;102099.56;;;-1.49;100.00
9784;BME280;4931;44.874;-1.092;2023-02-28T04:11:17;102111.50;;;-1.44;100.00
9784;BME280;4931;44.874;-1.092;2023-02-28T04:13:44;102104.25;;;-1.52;100.00
9784;BME280;4931;44.874;-1.092;2023-02-28T04:16:09;102113.31;;;-1.53;100.00
9784;BME280;4931;44.874;-1.092;2023-02-28T04:18:38;102114.50;;;-1.55;100.00
9784;BME280;4931;44.874;-1.092;2023-02-28T04:21:05;102103.22;;;-1.67;100.00
9784;BME280;4931;44.874;-1.092;2023-02-28T04:23:30;102114.00;;;-1.59;100.00
9784;BME280;4931;44.874;-1.092;2023-02-28T04:25:56;102119.88;;;-1.55;100.00
9784;BME280;4931;44.874;-1.092;2023-02-28T04:28:21;102127.81;;;-1.54;100.00
9784;BME280;4931;44.874;-1.092;2023-02-28T04:30:47;102126.13;;;-1.55;100.00
9784;BME280;4931;44.874;-1.092;2023-02-28T04:33:12;102128.78;;;-1.63;100.00
9784;BME280;4931;44.874;-1.092;2023-02-28T04:35:37;102126.78;;;-1.61;100.00
9784;BME280;4931;44.874;-1.092;2023-02-28T04:38:03;102125.78;;;-1.68;100.00
9784;BME280;4931;44.874;-1.092;2023-02-28T04:40:28;102132.16;;;-1.61;100.00
9784;BME280;4931;44.874;-1.092;2023-02-28T04:42:54;102110.28;;;-1.74;100.00
9784;BME280;4931;44.874;-1.092;2023-02-28T04:45:19;102130.47;;;-1.62;100.00
9784;BME280;4931;44.874;-1.092;2023-02-28T04:47:45;102126.25;;;-1.64;100.00
9784;BME280;4931;44.874;-1.092;2023-02-28T04:50:10;102130.28;;;-1.69;100.00
9784;BME280;4931;44.874;-1.092;2023-02-28T04:52:36;102131.97;;;-1.68;100.00
9784;BME280;4931;44.874;-1.092;2023-02-28T04:55:01;102136.19;;;-1.65;100.00
9784;BME280;4931;44.874;-1.092;2023-02-28T04:57:26;102131.47;;;-1.63;100.00
9784;BME280;4931;44.874;-1.092;2023-02-28T04:59:52;102137.88;;;-1.64;100.00
9784;BME280;4931;44.874;-1.092;2023-02-28T05:02:17;102141.69;;;-1.75;100.00
9784;BME280;4931;44.874;-1.092;2023-02-28T05:04:43;102148.25;;;-1.77;100.00
9784;BME280;4931;44.874;-1.092;2023-02-28T05:07:08;102147.25;;;-1.76;100.00
9784;BME280;4931;44.874;-1.092;2023-02-28T05:09:35;102139.19;;;-1.76;100.00
9784;BME280;4931;44.874;-1.092;2023-02-28T05:12:00;102147.25;;;-1.76;100.00
9784;BME280;4931;44.874;-1.092;2023-02-28T05:14:26;102147.25;;;-1.76;100.00
9784;BME280;4931;44.874;-1.092;2023-02-28T05:16:51;102148.94;;;-1.84;100.00
9784;BME280;4931;44.874;-1.092;2023-02-28T05:19:17;102147.25;;;-1.85;100.00
9784;BME280;4931;44.874;-1.092;2023-02-28T05:21:54;102154.94;;;-1.90;100.00
9784;BME280;4931;44.874;-1.092;2023-02-28T05:24:20;102153.78;;;-1.87;100.00
9784;BME280;4931;44.874;-1.092;2023-02-28T05:26:49;102151.25;;;-1.89;100.00
9784;BME280;4931;44.874;-1.092;2023-02-28T05:29:16;102156.44;;;-1.95;100.00
9784;BME280;4931;44.874;-1.092;2023-02-28T05:31:41;102145.50;;;-2.02;100.00
9784;BME280;4931;44.874;-1.092;2023-02-28T05:34:07;102151.91;;;-1.95;100.00
9784;BME280;4931;44.874;-1.092;2023-02-28T05:36:33;102158.25;;;-2.04;100.00
9784;BME280;4931;44.874;-1.092;2023-02-28T05:38:58;102166.50;;;-2.06;100.00
9784;BME280;4931;44.874;-1.092;2023-02-28T05:41:24;102171.53;;;-2.03;100.00
9784;BME280;4931;44.874;-1.092;2023-02-28T05:43:49;102177.13;;;-1.96;100.00
9784;BME280;4931;44.874;-1.092;2023-02-28T05:46:15;102185.25;;;-1.88;100.00
9784;BME280;4931;44.874;-1.092;2023-02-28T05:48:41;102186.59;;;-1.84;100.00
9784;BME280;4931;44.874;-1.092;2023-02-28T05:51:08;102180.69;;;-1.87;100.00
9784;BME280;4931;44.874;-1.092;2023-02-28T05:53:34;102191.28;;;-1.86;100.00
9784;BME280;4931;44.874;-1.092;2023-02-28T05:56:00;102190.91;;;-1.91;100.00
9784;BME280;4931;44.874;-1.092;2023-02-28T05:58:26;102202.72;;;-1.84;100.00
9784;BME280;4931;44.874;-1.092;2023-02-28T06:00:56;102196.31;;;-1.91;100.00
9784;BME280;4931;44.874;-1.092;2023-02-28T06:03:22;102200.31;;;-1.95;100.00
9784;BME280;4931;44.874;-1.092;2023-02-28T06:05:47;102205.38;;;-1.92;100.00
9784;BME280;4931;44.874;-1.092;2023-02-28T06:08:13;102199.66;;;-1.97;100.00
9784;BME280;4931;44.874;-1.092;2023-02-28T06:10:38;102208.75;;;-1.90;100.00
9784;BME280;4931;44.874;-1.092;2023-02-28T06:13:04;102206.44;;;-1.85;100.00
9784;BME280;4931;44.874;-1.092;2023-02-28T06:15:30;102204.38;;;-1.91;100.00
9784;BME280;4931;44.874;-1.092;2023-02-28T06:17:56;102211.28;;;-1.88;100.00
9784;BME280;4931;44.874;-1.092;2023-02-28T06:20:22;102205.69;;;-1.95;100.00
9784;BME280;4931;44.874;-1.092;2023-02-28T06:22:47;102209.03;;;-2.01;100.00
9784;BME280;4931;44.874;-1.092;2023-02-28T06:25:13;102204.34;;;-1.99;100.00
9784;BME280;4931;44.874;-1.092;2023-02-28T06:27:38;102208.66;;;-2.06;100.00
9784;BME280;4931;44.874;-1.092;2023-02-28T06:30:04;102208.00;;;-2.08;100.00
9784;BME280;4931;44.874;-1.092;2023-02-28T06:32:29;102217.44;;;-2.04;100.00
9784;BME280;4931;44.874;-1.092;2023-02-28T06:34:55;102216.09;;;-2.00;100.00
9784;BME280;4931;44.874;-1.092;2023-02-28T06:37:22;102227.03;;;-2.02;100.00
9784;BME280;4931;44.874;-1.092;2023-02-28T06:39:51;102225.03;;;-1.99;100.00
9784;BME280;4931;44.874;-1.092;2023-02-28T06:42:16;102219.94;;;-2.03;100.00
9784;BME280;4931;44.874;-1.092;2023-02-28T06:44:42;102224.16;;;-2.00;100.00
9784;BME280;4931;44.874;-1.092;2023-02-28T06:47:08;102235.91;;;-2.01;100.00
9784;BME280;4931;44.874;-1.092;2023-02-28T06:49:35;102230.53;;;-2.01;100.00
9784;BME280;4931;44.874;-1.092;2023-02-28T06:52:01;102232.41;;;-2.02;100.00
9784;BME280;4931;44.874;-1.092;2023-02-28T06:54:27;102230.88;;;-2.04;100.00
9784;BME280;4931;44.874;-1.092;2023-02-28T06:56:52;102239.63;;;-2.02;100.00
9784;BME280;4931;44.874;-1.092;2023-02-28T06:59:20;102252.06;;;-2.01;100.00
9784;BME280;4931;44.874;-1.092;2023-02-28T07:01:45;102243.69;;;-1.98;100.00
9784;BME280;4931;44.874;-1.092;2023-02-28T07:04:11;102252.22;;;-2.03;100.00
9784;BME280;4931;44.874;-1.092;2023-02-28T07:06:38;102245.69;;;-2.00;100.00
9784;BME280;4931;44.874;-1.092;2023-02-28T07:09:04;102240.84;;;-1.96;100.00
9784;BME280;4931;44.874;-1.092;2023-02-28T07:11:30;102239.16;;;-1.97;100.00
9784;BME280;4931;44.874;-1.092;2023-02-28T07:13:56;102247.03;;;-1.96;100.00
9784;BME280;4931;44.874;-1.092;2023-02-28T07:16:24;102243.03;;;-1.92;100.00
9784;BME280;4931;44.874;-1.092;2023-02-28T07:18:52;102241.66;;;-1.96;100.00
9784;BME280;4931;44.874;-1.092;2023-02-28T07:21:17;102250.44;;;-1.94;100.00
9784;BME280;4931;44.874;-1.092;2023-02-28T07:23:43;102264.41;;;-1.90;100.00
9784;BME280;4931;44.874;-1.092;2023-02-28T07:26:14;102271.00;;;-1.85;100.00
9784;BME280;4931;44.874;-1.092;2023-02-28T07:28:44;102269.00;;;-1.82;100.00
9784;BME280;4931;44.874;-1.092;2023-02-28T07:31:11;102271.72;;;-1.74;100.00
9784;BME280;4931;44.874;-1.092;2023-02-28T07:33:37;102272.75;;;-1.67;100.00
9784;BME280;4931;44.874;-1.092;2023-02-28T07:36:05;102273.81;;;-1.60;100.00
9784;BME280;4931;44.874;-1.092;2023-02-28T07:38:34;102276.00;;;-1.55;100.00
9784;BME280;4931;44.874;-1.092;2023-02-28T07:41:00;102281.72;;;-1.50;100.00
9784;BME280;4931;44.874;-1.092;2023-02-28T07:43:25;102288.34;;;-1.36;100.00
9784;BME280;4931;44.874;-1.092;2023-02-28T07:45:51;102298.31;;;-1.28;100.00
9784;BME280;4931;44.874;-1.092;2023-02-28T07:48:16;102292.78;;;-1.19;100.00
9784;BME280;4931;44.874;-1.092;2023-02-28T07:50:42;102292.78;;;-1.10;100.00
9784;BME280;4931;44.874;-1.092;2023-02-28T07:53:07;102287.78;;;-0.89;100.00
9784;BME280;4931;44.874;-1.092;2023-02-28T07:55:33;102296.56;;;-0.62;100.00
9784;BME280;4931;44.874;-1.092;2023-02-28T07:57:58;102291.84;;;-0.10;100.00
9784;BME280;4931;44.874;-1.092;2023-02-28T08:00:24;102288.75;;;0.18;100.00
9784;BME280;4931;44.874;-1.092;2023-02-28T08:02:49;102286.31;;;0.31;100.00
9784;BME280;4931;44.874;-1.092;2023-02-28T08:05:15;102283.91;;;0.44;100.00
9784;BME280;4931;44.874;-1.092;2023-02-28T08:07:42;102294.56;;;0.77;100.00
9784;BME280;4931;44.874;-1.092;2023-02-28T08:10:08;102292.69;;;1.09;100.00
9784;BME280;4931;44.874;-1.092;2023-02-28T08:12:35;102289.53;;;1.29;100.00
9784;BME280;4931;44.874;-1.092;2023-02-28T08:15:00;102293.88;;;1.30;100.00
9784;BME280;4931;44.874;-1.092;2023-02-28T08:17:26;102293.09;;;1.44;100.00
9784;BME280;4931;44.874;-1.092;2023-02-28T08:19:51;102291.25;;;1.45;100.00
9784;BME280;4931;44.874;-1.092;2023-02-28T08:22:17;102295.09;;;1.51;100.00
9784;BME280;4931;44.874;-1.092;2023-02-28T08:24:42;102291.88;;;1.70;100.00
9784;BME280;4931;44.874;-1.092;2023-02-28T08:27:09;102294.34;;;1.95;100.00
9784;BME280;4931;44.874;-1.092;2023-02-28T08:29:37;102287.53;;;1.99;100.00
9784;BME280;4931;44.874;-1.092;2023-02-28T08:32:02;102292.84;;;1.92;100.00
9784;BME280;4931;44.874;-1.092;2023-02-28T08:34:28;102290.91;;;2.01;100.00
9784;BME280;4931;44.874;-1.092;2023-02-28T08:36:53;102297.16;;;1.87;100.00
9784;BME280;4931;44.874;-1.092;2023-02-28T08:39:19;102293.16;;;2.12;100.00
9784;BME280;4931;44.874;-1.092;2023-02-28T08:41:45;102292.31;;;2.12;100.00
9784;BME280;4931;44.874;-1.092;2023-02-28T08:44:10;102301.94;;;2.14;100.00
9784;BME280;4931;44.874;-1.092;2023-02-28T08:46:36;102296.69;;;1.98;100.00
9784;BME280;4931;44.874;-1.092;2023-02-28T08:49:01;102302.84;;;1.92;100.00
9784;BME280;4931;44.874;-1.092;2023-02-28T08:51:27;102298.94;;;2.09;100.00
9784;BME280;4931;44.874;-1.092;2023-02-28T08:53:55;102308.28;;;2.22;100.00
9784;BME280;4931;44.874;-1.092;2023-02-28T08:56:21;102302.88;;;2.52;100.00
9784;BME280;4931;44.874;-1.092;2023-02-28T08:58:48;102309.59;;;2.41;100.00
9784;BME280;4931;44.874;-1.092;2023-02-28T09:01:22;102310.16;;;2.36;100.00
9784;BME280;4931;44.874;-1.092;2023-02-28T09:03:49;102312.78;;;2.44;100.00
9784;BME280;4931;44.874;-1.092;2023-02-28T09:06:15;102305.28;;;2.46;100.00
9784;BME280;4931;44.874;-1.092;2023-02-28T09:08:41;102306.59;;;2.51;100.00
9784;BME280;4931;44.874;-1.092;2023-02-28T09:11:08;102305.00;;;2.41;100.00
9784;BME280;4931;44.874;-1.092;2023-02-28T09:13:34;102303.34;;;2.55;100.00
9784;BME280;4931;44.874;-1.092;2023-02-28T09:16:01;102305.69;;;2.43;100.00
9784;BME280;4931;44.874;-1.092;2023-02-28T09:18:27;102304.31;;;2.69;100.00
9784;BME280;4931;44.874;-1.092;2023-02-28T09:20:53;102303.13;;;3.08;100.00
9784;BME280;4931;44.874;-1.092;2023-02-28T09:23:19;102302.75;;;3.11;100.00
9784;BME280;4931;44.874;-1.092;2023-02-28T09:25:51;102297.38;;;3.40;100.00
9784;BME280;4931;44.874;-1.092;2023-02-28T09:28:17;102304.94;;;3.23;100.00
9784;BME280;4931;44.874;-1.092;2023-02-28T09:30:51;102305.72;;;3.38;100.00
9784;BME280;4931;44.874;-1.092;2023-02-28T09:33:17;102310.69;;;3.56;100.00
9784;BME280;4931;44.874;-1.092;2023-02-28T09:35:46;102326.78;;;3.58;100.00
9784;BME280;4931;44.874;-1.092;2023-02-28T09:38:11;102321.72;;;3.76;100.00
9784;BME280;4931;44.874;-1.092;2023-02-28T09:40:47;102322.91;;;3.67;100.00
9784;BME280;4931;44.874;-1.092;2023-02-28T09:43:15;102318.69;;;3.64;100.00
9784;BME280;4931;44.874;-1.092;2023-02-28T09:45:48;102321.09;;;3.74;100.00
9784;BME280;4931;44.874;-1.092;2023-02-28T09:48:21;102327.03;;;3.63;100.00
9784;BME280;4931;44.874;-1.092;2023-02-28T09:50:51;102327.00;;;3.85;100.00
9784;BME280;4931;44.874;-1.092;2023-02-28T09:53:29;102325.72;;;3.80;100.00
9784;BME280;4931;44.874;-1.092;2023-02-28T09:56:02;102316.88;;;4.00;100.00
9784;BME280;4931;44.874;-1.092;2023-02-28T10:06:21;102310.75;;;4.55;100.00
9784;BME280;4931;44.874;-1.092;2023-02-28T10:09:04;102326.34;;;4.39;100.00
9784;BME280;4931;44.874;-1.092;2023-02-28T10:11:36;102322.13;;;4.30;100.00
9784;BME280;4931;44.874;-1.092;2023-02-28T10:14:10;102315.09;;;4.49;100.00
9784;BME280;4931;44.874;-1.092;2023-02-28T10:16:56;102315.84;;;4.71;100.00
9784;BME280;4931;44.874;-1.092;2023-02-28T10:19:42;102312.38;;;4.97;100.00
9784;BME280;4931;44.874;-1.092;2023-02-28T10:22:24;102305.31;;;5.17;100.00
9784;BME280;4931;44.874;-1.092;2023-02-28T10:24:54;102299.91;;;5.43;100.00
9784;BME280;4931;44.874;-1.092;2023-02-28T10:27:29;102291.16;;;5.55;100.00
9784;BME280;4931;44.874;-1.092;2023-02-28T10:29:57;102292.41;;;5.45;100.00
9784;BME280;4931;44.874;-1.092;2023-02-28T10:32:30;102306.66;;;5.54;100.00
9784;BME280;4931;44.874;-1.092;2023-02-28T14:38:50;102117.56;;;6.15;88.73
9784;BME280;4931;44.874;-1.092;2023-02-28T14:41:36;102130.22;;;6.42;88.46
9784;BME280;4931;44.874;-1.092;2023-02-28T14:46:48;102125.75;;;6.54;86.03
9784;BME280;4931;44.874;-1.092;2023-02-28T14:49:30;102126.13;;;6.58;85.25
9784;BME280;4931;44.874;-1.092;2023-02-28T14:54:54;102134.63;;;6.43;86.17
9784;BME280;4931;44.874;-1.092;2023-02-28T14:57:39;102119.00;;;6.25;89.09
9784;BME280;4931;44.874;-1.092;2023-02-28T15:02:42;102120.16;;;6.42;88.67
9784;BME280;4931;44.874;-1.092;2023-02-28T15:07:59;102112.41;;;6.39;89.34
9784;BME280;4931;44.874;-1.092;2023-02-28T15:10:27;102118.78;;;6.26;87.66
9784;BME280;4931;44.874;-1.092;2023-02-28T15:12:56;102122.59;;;6.19;90.26
9784;BME280;4931;44.874;-1.092;2023-02-28T15:15:26;102130.63;;;6.00;90.87
9784;BME280;4931;44.874;-1.092;2023-02-28T15:17:56;102127.97;;;5.73;91.42
9784;BME280;4931;44.874;-1.092;2023-02-28T15:20:24;102128.22;;;5.65;93.04
9784;BME280;4931;44.874;-1.092;2023-02-28T15:22:54;102118.53;;;5.76;91.91
9784;BME280;4931;44.874;-1.092;2023-02-28T15:25:22;102125.41;;;5.92;94.62
9784;BME280;4931;44.874;-1.092;2023-02-28T15:27:50;102123.97;;;5.82;90.79
9784;BME280;4931;44.874;-1.092;2023-02-28T15:30:29;102124.59;;;5.85;94.48
9784;BME280;4931;44.874;-1.092;2023-02-28T15:33:17;102122.88;;;5.97;92.40
9784;BME280;4931;44.874;-1.092;2023-02-28T15:36:29;102121.03;;;5.77;90.56
9784;BME280;4931;44.874;-1.092;2023-02-28T15:38:35;102124.84;;;5.63;90.59
9784;BME280;4931;44.874;-1.092;2023-02-28T15:41:01;102119.00;;;5.53;94.97
9784;BME280;4931;44.874;-1.092;2023-02-28T15:43:32;102121.13;;;5.51;97.70
9784;BME280;4931;44.874;-1.092;2023-02-28T15:46:03;102123.44;;;5.47;98.97
9784;BME280;4931;44.874;-1.092;2023-02-28T15:48:30;102120.69;;;5.54;98.53
9784;BME280;4931;44.874;-1.092;2023-02-28T15:51:02;102117.91;;;6.96;100.00
9784;BME280;4931;44.874;-1.092;2023-02-28T15:53:35;102121.13;;;6.55;100.00
9784;BME280;4931;44.874;-1.092;2023-02-28T15:56:04;102124.31;;;7.53;100.00
9784;BME280;4931;44.874;-1.092;2023-02-28T15:58:30;102118.59;;;6.60;100.00
9784;BME280;4931;44.874;-1.092;2023-02-28T16:01:03;102124.47;;;6.18;100.00
9784;BME280;4931;44.874;-1.092;2023-02-28T16:03:39;102129.41;;;5.82;100.00
9784;BME280;4931;44.874;-1.092;2023-02-28T16:06:37;102125.28;;;5.67;100.00
9784;BME280;4931;44.874;-1.092;2023-02-28T16:09:06;102119.84;;;5.60;100.00
9784;BME280;4931;44.874;-1.092;2023-02-28T16:11:35;102118.56;;;5.69;100.00
9784;BME280;4931;44.874;-1.092;2023-02-28T16:14:03;102120.91;;;5.45;100.00
9784;BME280;4931;44.874;-1.092;2023-02-28T16:16:28;102132.88;;;5.24;100.00
9784;BME280;4931;44.874;-1.092;2023-02-28T16:18:56;102132.41;;;5.47;100.00
9784;BME280;4931;44.874;-1.092;2023-02-28T16:21:21;102117.75;;;5.55;100.00
9784;BME280;4931;44.874;-1.092;2023-02-28T16:23:47;102131.59;;;5.40;100.00
9784;BME280;4931;44.874;-1.092;2023-02-28T16:26:21;102132.84;;;5.44;100.00
9784;BME280;4931;44.874;-1.092;2023-02-28T16:28:47;102131.19;;;5.30;100.00
9784;BME280;4931;44.874;-1.092;2023-02-28T16:31:13;102130.56;;;5.41;100.00
9784;BME280;4931;44.874;-1.092;2023-02-28T16:33:43;102137.03;;;5.47;100.00
9784;BME280;4931;44.874;-1.092;2023-02-28T16:36:14;102132.84;;;5.44;100.00
9784;BME280;4931;44.874;-1.092;2023-02-28T16:38:40;102133.09;;;5.36;100.00
9784;BME280;4931;44.874;-1.092;2023-02-28T16:41:05;102128.69;;;5.35;100.00
9784;BME280;4931;44.874;-1.092;2023-02-28T16:43:31;102133.50;;;5.20;100.00
9784;BME280;4931;44.874;-1.092;2023-02-28T16:45:58;102143.75;;;4.97;100.00
9784;BME280;4931;44.874;-1.092;2023-02-28T16:48:24;102138.31;;;5.04;100.00
9784;BME280;4931;44.874;-1.092;2023-02-28T16:50:50;102137.50;;;4.97;100.00
9784;BME280;4931;44.874;-1.092;2023-02-28T16:53:16;102144.38;;;4.79;100.00
9784;BME280;4931;44.874;-1.092;2023-02-28T16:55:42;102149.19;;;4.91;100.00
9784;BME280;4931;44.874;-1.092;2023-02-28T16:58:13;102147.72;;;4.75;100.00
9784;BME280;4931;44.874;-1.092;2023-02-28T17:00:40;102159.63;;;4.87;100.00
9784;BME280;4931;44.874;-1.092;2023-02-28T17:03:21;102157.13;;;4.72;100.00
9784;BME280;4931;44.874;-1.092;2023-02-28T17:05:47;102157.50;;;4.56;100.00
9784;BME280;4931;44.874;-1.092;2023-02-28T17:08:13;102156.91;;;4.67;100.00
9784;BME280;4931;44.874;-1.092;2023-02-28T17:10:38;102156.66;;;4.62;100.00
9784;BME280;4931;44.874;-1.092;2023-02-28T17:13:04;102161.47;;;4.53;100.00
9784;BME280;4931;44.874;-1.092;2023-02-28T17:15:33;102158.31;;;4.49;100.00
9784;BME280;4931;44.874;-1.092;2023-02-28T17:17:58;102161.28;;;4.55;100.00
9784;BME280;4931;44.874;-1.092;2023-02-28T17:20:24;102159.38;;;4.62;100.00
9784;BME280;4931;44.874;-1.092;2023-02-28T17:22:52;102163.81;;;4.76;100.00
9784;BME280;4931;44.874;-1.092;2023-02-28T17:25:19;102161.72;;;4.65;100.00
9784;BME280;4931;44.874;-1.092;2023-02-28T17:27:45;102162.94;;;4.56;100.00
9784;BME280;4931;44.874;-1.092;2023-02-28T17:30:18;102175.69;;;4.55;100.00
9784;BME280;4931;44.874;-1.092;2023-02-28T17:32:44;102165.03;;;4.54;100.00
9784;BME280;4931;44.874;-1.092;2023-02-28T17:35:10;102178.81;;;4.45;100.00
9784;BME280;4931;44.874;-1.092;2023-02-28T17:37:36;102177.94;;;4.45;100.00
9784;BME280;4931;44.874;-1.092;2023-02-28T17:40:02;102173.94;;;4.34;100.00
9784;BME280;4931;44.874;-1.092;2023-02-28T17:42:28;102187.13;;;4.37;100.00
9784;BME280;4931;44.874;-1.092;2023-02-28T17:44:53;102177.53;;;4.41;100.00
9784;BME280;4931;44.874;-1.092;2023-02-28T17:47:19;102177.75;;;4.46;100.00
9784;BME280;4931;44.874;-1.092;2023-02-28T17:49:45;102187.81;;;4.53;100.00
9784;BME280;4931;44.874;-1.092;2023-02-28T17:52:10;102188.59;;;4.46;100.00
9784;BME280;4931;44.874;-1.092;2023-02-28T17:54:36;102194.28;;;4.52;100.00
9784;BME280;4931;44.874;-1.092;2023-02-28T17:57:01;102187.19;;;4.51;100.00
9784;BME280;4931;44.874;-1.092;2023-02-28T17:59:27;102188.19;;;4.36;100.00
9784;BME280;4931;44.874;-1.092;2023-02-28T18:02:02;102191.31;;;4.46;100.00